Time;durP1;ratioP1;P1;durP2;ratioP2;P2;SDS_P1;SDS_P2;PMS_P1;PMS_P2;Temp;Humidity;BMP_temperature;BMP_pressure;BME280_temperature;BME280_humidity;BME280_pressure;Samples;Min_cycle;Max_cycle;Signal;HPM_P1;HPM_P2
2022/02/06 00:01:01;;;;;;;4.43;1.42;;;6.30;85.30;;;;;;9958869;28;20042;-72
2022/02/06 00:05:52;;;;;;;4.70;1.63;;;6.50;85.70;;;;;;9977855;28;20058;-74
2022/02/06 00:10:44;;;;;;;3.13;1.73;;;6.20;85.70;;;;;;9967490;28;20053;-73
2022/02/06 00:15:34;;;;;;;3.17;1.48;;;6.00;85.80;;;;;;9968019;28;20035;-73
2022/02/06 00:20:32;;;;;;;4.82;2.70;;;5.90;86.00;;;;;;9976177;28;20022;-74
2022/02/06 00:30:25;;;;;;;4.90;1.40;;;5.90;86.00;;;;;;9969913;28;20069;-73
2022/02/06 00:45:45;;;;;;;3.78;1.42;;;5.80;85.90;;;;;;9987740;28;20060;-74
2022/02/06 00:50:44;;;;;;;2.92;1.67;;;5.70;86.10;;;;;;9969352;28;20547;-73
2022/02/06 00:55:35;;;;;;;8.10;2.10;;;5.70;86.20;;;;;;9981980;28;20027;-75
2022/02/06 01:00:29;;;;;;;2.83;1.45;;;5.70;86.20;;;;;;9972519;28;20030;-74
2022/02/06 01:05:20;;;;;;;3.60;1.55;;;5.70;86.10;;;;;;9950512;28;20103;-72
2022/02/06 01:10:11;;;;;;;4.47;1.50;;;5.50;86.30;;;;;;9981023;28;20055;-74
2022/02/06 01:15:17;;;;;;;2.25;0.90;;;5.50;86.40;;;;;;9974541;28;20049;-73
2022/02/06 01:20:16;;;;;;;;;;;5.60;86.40;;;;;;9970400;28;20068;-74
2022/02/06 01:25:14;;;;;;;2.50;1.08;;;5.50;86.70;;;;;;9968705;28;19918;-74
2022/02/06 01:30:22;;;;;;;1.40;1.13;;;5.50;86.50;;;;;;9962773;28;20039;-73
2022/02/06 01:35:17;;;;;;;3.65;1.85;;;5.40;86.50;;;;;;9970112;28;20136;-75
2022/02/06 01:40:17;;;;;;;2.47;1.20;;;5.40;86.60;;;;;;9976274;28;20018;-72
2022/02/06 02:06:27;;;;;;;2.00;1.17;;;5.10;87.30;;;;;;9972666;28;20030;-74
2022/02/06 02:26:37;;;;;;;2.78;1.13;;;5.10;87.50;;;;;;9973312;28;20084;-73
2022/02/06 02:46:55;;;;;;;1.88;1.27;;;5.20;88.00;;;;;;9976729;28;20104;-74
2022/02/06 02:51:48;;;;;;;5.63;1.48;;;5.30;88.00;;;;;;9979084;28;20136;-74
2022/02/06 02:56:48;;;;;;;2.80;0.88;;;5.30;88.10;;;;;;9951662;28;20033;-73
2022/02/06 03:01:50;;;;;;;4.00;1.30;;;5.30;88.10;;;;;;9972497;28;20384;-73
2022/02/06 03:06:41;;;;;;;2.92;1.27;;;5.40;88.20;;;;;;9967777;28;20129;-73
2022/02/06 03:11:32;;;;;;;2.85;1.17;;;5.40;88.10;;;;;;9966939;28;20144;-72
2022/02/06 03:17:05;;;;;;;2.30;1.20;;;5.40;88.00;;;;;;9970072;28;20066;-73
2022/02/06 03:21:39;;;;;;;2.95;1.02;;;5.50;88.10;;;;;;9958593;28;20408;-72
2022/02/06 03:26:29;;;;;;;3.22;1.02;;;5.50;88.10;;;;;;9984529;28;20037;-73
2022/02/06 03:31:21;;;;;;;2.60;1.17;;;5.50;88.10;;;;;;9967957;28;20141;-72
2022/02/06 03:36:12;;;;;;;3.70;1.35;;;5.50;88.00;;;;;;9979034;28;20101;-73
2022/02/06 03:41:07;;;;;;;1.55;1.00;;;5.50;88.20;;;;;;9976587;28;20109;-73
2022/02/06 03:46:06;;;;;;;3.90;1.60;;;5.60;88.20;;;;;;9972177;28;20030;-72
2022/02/06 03:51:04;;;;;;;2.42;1.25;;;5.60;88.30;;;;;;9971113;28;20026;-73
2022/02/06 03:55:59;;;;;;;2.25;1.13;;;5.60;88.30;;;;;;9961354;28;20382;-74
2022/02/06 04:00:50;;;;;;;0.70;0.70;;;5.70;88.30;;;;;;9972411;28;20436;-72
2022/02/06 04:05:47;;;;;;;2.95;1.13;;;5.70;88.30;;;;;;9974157;28;20076;-74
2022/02/06 04:10:43;;;;;;;1.20;1.02;;;5.70;88.40;;;;;;9972456;28;20026;-75
2022/02/06 04:15:40;;;;;;;2.85;1.30;;;5.70;88.30;;;;;;9984573;28;20034;-75
2022/02/06 04:20:31;;;;;;;3.20;1.00;;;5.40;88.20;;;;;;9976012;28;20045;-75
2022/02/06 04:25:22;;;;;;;1.80;0.88;;;5.60;88.50;;;;;;9965450;28;20031;-72
2022/02/06 04:30:12;;;;;;;2.70;1.05;;;5.60;88.70;;;;;;9964620;28;20046;-73
2022/02/06 04:35:04;;;;;;;1.75;0.90;;;5.60;89.30;;;;;;9981628;28;21161;-72
2022/02/06 04:40:12;;;;;;;2.67;1.13;;;5.60;88.70;;;;;;9947451;28;20122;-74
2022/02/06 04:45:42;;;;;;;2.15;0.98;;;5.60;88.60;;;;;;9972585;28;20504;-73
2022/02/06 04:51:09;;;;;;;3.63;0.95;;;5.60;88.60;;;;;;9972473;28;20510;-74
2022/02/06 05:31:33;;;;;;;1.90;0.98;;;5.50;89.10;;;;;;9983278;28;20702;-73
2022/02/06 05:36:24;;;;;;;;;;;5.60;89.40;;;;;;9983808;28;20436;-75
2022/02/06 05:41:14;;;;;;;2.78;1.02;;;5.60;89.30;;;;;;9972864;28;19924;-74
2022/02/06 05:46:05;;;;;;;1.67;1.10;;;5.60;89.20;;;;;;9966313;28;20129;-72
2022/02/06 05:50:57;;;;;;;3.13;0.98;;;6.00;89.80;;;;;;9963613;28;20054;-72
2022/02/06 05:55:48;;;;;;;1.75;0.70;;;5.70;89.50;;;;;;9975640;28;20035;-73
2022/02/06 06:00:42;;;;;;;1.25;0.73;;;5.70;89.50;;;;;;9974602;28;20697;-73
2022/02/06 06:05:33;;;;;;;2.35;0.77;;;5.80;89.50;;;;;;9968318;28;20466;-72
2022/02/06 06:10:24;;;;;;;2.08;0.85;;;5.80;89.60;;;;;;9970953;28;20405;-72
2022/02/06 06:15:15;;;;;;;0.82;0.70;;;5.80;89.80;;;;;;9970471;28;20054;-71
2022/02/06 06:20:11;;;;;;;2.58;0.85;;;5.80;89.90;;;;;;9954950;28;20089;-73
2022/02/06 06:25:03;;;;;;;;;;;5.70;89.80;;;;;;9969741;28;20065;-74
2022/02/06 06:29:53;;;;;;;1.42;0.98;;;5.70;90.10;;;;;;9967949;28;19918;-72
2022/02/06 06:34:45;;;;;;;1.05;0.70;;;5.70;90.10;;;;;;9979375;28;20042;-73
2022/02/06 06:39:43;;;;;;;0.73;0.68;;;5.70;90.10;;;;;;9970908;28;20037;-73
2022/02/06 06:44:34;;;;;;;3.33;0.90;;;5.60;90.10;;;;;;9966130;28;20058;-73
2022/02/06 06:49:25;;;;;;;2.78;0.70;;;5.60;90.30;;;;;;9974089;28;20510;-72
2022/02/06 06:54:21;;;;;;;3.35;0.90;;;5.70;90.30;;;;;;9980674;28;20329;-72
2022/02/06 06:59:28;;;;;;;3.22;1.10;;;5.70;90.40;;;;;;9954721;28;20371;-73
2022/02/06 07:04:19;;;;;;;1.63;1.05;;;5.70;90.30;;;;;;9974876;28;20038;-73
2022/02/06 07:09:10;;;;;;;2.95;0.90;;;6.00;90.40;;;;;;9967940;28;20056;-75
2022/02/06 07:14:00;;;;;;;2.72;1.10;;;5.70;90.30;;;;;;9967022;28;20023;-74
2022/02/06 07:18:51;;;;;;;3.45;0.93;;;5.80;90.40;;;;;;9953978;28;20030;-77
2022/02/06 07:23:42;;;;;;;3.55;0.90;;;6.20;90.40;;;;;;9967803;28;20026;-72
2022/02/06 07:28:33;;;;;;;1.42;0.80;;;5.90;90.30;;;;;;9959241;28;20081;-75
2022/02/06 07:33:24;;;;;;;2.53;0.70;;;6.00;90.30;;;;;;9943215;28;20038;-75
2022/02/06 07:38:15;;;;;;;1.27;0.47;;;6.10;90.30;;;;;;9964010;28;20038;-72
2022/02/06 07:43:05;;;;;;;1.83;0.85;;;6.10;90.30;;;;;;9947217;28;20902;-73
2022/02/06 07:47:56;;;;;;;1.92;0.82;;;6.10;90.40;;;;;;9966047;28;20042;-71
2022/02/06 07:52:48;;;;;;;2.53;0.80;;;6.20;90.40;;;;;;9971440;28;20129;-72
2022/02/06 07:57:39;;;;;;;3.05;0.70;;;6.20;90.30;;;;;;9967399;28;20053;-74
2022/02/06 08:02:30;;;;;;;1.60;0.95;;;6.30;90.30;;;;;;9980110;28;20021;-74
2022/02/06 08:07:20;;;;;;;2.38;0.60;;;6.50;90.20;;;;;;9953547;28;20041;-75
2022/02/06 08:12:13;;;;;;;1.65;0.55;;;6.60;90.10;;;;;;9974233;28;20405;-72
2022/02/06 08:17:04;;;;;;;1.70;0.75;;;6.70;90.10;;;;;;9975444;28;20023;-73
2022/02/06 08:21:55;;;;;;;5.57;0.75;;;6.70;90.10;;;;;;9951618;28;20022;-73
2022/02/06 08:26:46;;;;;;;4.53;0.80;;;6.70;90.00;;;;;;9954794;28;20030;-73
2022/02/06 08:31:37;;;;;;;4.03;0.88;;;6.80;89.90;;;;;;9973951;28;20523;-73
2022/02/06 08:36:29;;;;;;;1.73;0.88;;;6.90;89.80;;;;;;9968471;28;20461;-71
2022/02/06 08:41:21;;;;;;;1.42;0.82;;;6.90;90.00;;;;;;9979590;28;20084;-73
2022/02/06 08:46:11;;;;;;;2.30;0.55;;;6.80;90.10;;;;;;9967743;28;20027;-75
2022/02/06 08:51:02;;;;;;;3.75;1.00;;;6.80;90.10;;;;;;9974061;28;20041;-73
2022/02/06 08:55:53;;;;;;;4.53;0.82;;;6.80;90.20;;;;;;9951345;28;20117;-75
2022/02/06 09:00:46;;;;;;;2.80;0.88;;;6.80;90.50;;;;;;9962302;28;20127;-73
2022/02/06 09:05:37;;;;;;;1.65;0.60;;;6.80;90.20;;;;;;9977970;28;20301;-75
2022/02/06 09:10:30;;;;;;;2.40;0.73;;;6.80;90.20;;;;;;9974188;28;20055;-75
2022/02/06 09:15:22;;;;;;;1.30;0.60;;;6.80;90.20;;;;;;9977943;28;20027;-75
2022/02/06 09:20:15;;;;;;;1.92;1.25;;;6.90;90.20;;;;;;9974735;28;20498;-71
2022/02/06 09:25:06;;;;;;;2.67;0.90;;;6.90;90.20;;;;;;9953588;28;20385;-71
2022/02/06 09:29:57;;;;;;;0.73;0.52;;;7.00;90.20;;;;;;9974382;28;20574;-73
2022/02/06 09:39:41;;;;;;;2.35;1.17;;;7.10;90.20;;;;;;9971800;28;20194;-72
2022/02/06 09:44:32;;;;;;;1.23;0.80;;;7.20;90.10;;;;;;9974270;28;20158;-73
2022/02/06 09:49:23;;;;;;;1.75;0.80;;;7.20;90.20;;;;;;9988695;28;20101;-73
2022/02/06 09:54:14;;;;;;;1.33;0.75;;;7.20;90.10;;;;;;9966194;28;20285;-73
2022/02/06 09:59:16;;;;;;;1.63;0.70;;;7.20;90.10;;;;;;9954488;28;20313;-72
2022/02/06 10:04:09;;;;;;;1.02;0.80;;;7.20;90.20;;;;;;9973738;28;20030;-72
2022/02/06 10:09:05;;;;;;;0.30;0.30;;;7.20;90.20;;;;;;9969854;28;20114;-72
2022/02/06 10:13:56;;;;;;;2.38;1.17;;;7.20;90.20;;;;;;9948935;28;20520;-72
2022/02/06 10:18:47;;;;;;;1.70;1.60;;;7.20;90.20;;;;;;9966346;28;20035;-75
2022/02/06 10:23:48;;;;;;;2.85;0.70;;;7.30;90.30;;;;;;9958867;28;20034;-71
2022/02/06 10:28:45;;;;;;;0.30;0.30;;;7.30;90.30;;;;;;9955644;28;20038;-73
2022/02/06 10:33:51;;;;;;;4.82;0.77;;;7.30;90.40;;;;;;9975418;28;20022;-73
2022/02/06 10:38:42;;;;;;;0.70;0.60;;;7.20;90.40;;;;;;9972414;28;20455;-72
2022/02/06 10:43:35;;;;;;;1.00;0.65;;;7.20;90.50;;;;;;9978592;28;20030;-74
2022/02/06 10:48:25;;;;;;;0.88;0.60;;;7.30;90.50;;;;;;9961988;28;20096;-75
2022/02/06 10:53:17;;;;;;;4.43;1.27;;;7.30;90.50;;;;;;9956210;28;20568;-73
2022/02/06 10:58:07;;;;;;;1.63;0.28;;;7.30;90.50;;;;;;9957984;28;20029;-74
2022/02/06 11:03:05;;;;;;;0.98;0.50;;;7.30;90.60;;;;;;9967086;28;20037;-74
2022/02/06 11:08:00;;;;;;;1.40;0.68;;;7.30;90.60;;;;;;9951044;28;20030;-75
2022/02/06 11:12:59;;;;;;;2.58;0.70;;;7.00;90.60;;;;;;9971691;28;20425;-75
2022/02/06 11:18:03;;;;;;;1.92;0.90;;;7.30;90.70;;;;;;9972433;28;20441;-73
2022/02/06 11:22:58;;;;;;;2.88;0.70;;;7.30;90.70;;;;;;9974110;28;20033;-72
2022/02/06 11:27:49;;;;;;;1.80;0.73;;;7.30;90.80;;;;;;9973798;28;20093;-73
2022/02/06 11:32:42;;;;;;;3.50;1.05;;;7.30;90.80;;;;;;9955624;28;20579;-73
2022/02/06 11:48:22;;;;;;;0.88;0.40;;;7.60;90.80;;;;;;9972827;28;20046;-71
2022/02/06 11:53:26;;;;;;;1.63;0.60;;;7.60;90.80;;;;;;9977897;28;20130;-72
2022/02/06 11:58:32;;;;;;;0.93;0.80;;;7.70;90.80;;;;;;9966246;28;20277;-71
2022/02/06 12:03:22;;;;;;;;;;;7.80;90.70;;;;;;9976444;28;20038;-75
2022/02/06 12:08:13;;;;;;;1.13;0.65;;;7.80;90.70;;;;;;9955558;28;20319;-71
2022/02/06 12:13:25;;;;;;;0.73;0.60;;;7.80;90.80;;;;;;9968520;28;20034;-73
2022/02/06 12:18:39;;;;;;;1.70;0.68;;;7.80;90.80;;;;;;9962486;28;20022;-72
2022/02/06 12:23:43;;;;;;;3.15;0.98;;;7.60;91.30;;;;;;9970139;28;20027;-74
2022/02/06 12:28:42;;;;;;;2.03;0.35;;;7.50;91.40;;;;;;9958383;28;20366;-72
2022/02/06 12:33:44;;;;;;;1.58;0.70;;;7.50;91.60;;;;;;9982119;28;20058;-71
2022/02/06 12:38:34;;;;;;;1.83;0.68;;;7.50;91.50;;;;;;9941548;28;20348;-72
2022/02/06 12:43:29;;;;;;;0.63;0.60;;;7.60;91.70;;;;;;9971614;28;20022;-73
2022/02/06 12:48:21;;;;;;;3.80;1.25;;;7.50;91.90;;;;;;9972591;28;20030;-73
2022/02/06 12:53:17;;;;;;;2.28;0.68;;;7.50;91.90;;;;;;9977364;28;20034;-72
2022/02/06 12:58:09;;;;;;;2.70;0.70;;;7.50;91.90;;;;;;9980920;28;20030;-72
2022/02/06 13:03:24;;;;;;;0.85;0.50;;;7.50;92.10;;;;;;9974887;28;20061;-72
2022/02/06 13:08:14;;;;;;;1.05;0.65;;;7.40;92.30;;;;;;9965932;28;20461;-73
2022/02/06 13:13:07;;;;;;;1.17;0.68;;;7.40;92.40;;;;;;9979646;28;20077;-73
2022/02/06 13:18:12;;;;;;;0.93;0.68;;;7.40;92.40;;;;;;9967710;28;20421;-72
2022/02/06 13:28:31;;;;;;;0.63;0.52;;;7.40;92.80;;;;;;9981389;28;20065;-73
2022/02/06 13:38:43;;;;;;;2.88;1.00;;;7.30;92.90;;;;;;9915871;28;20035;-72
2022/02/06 13:43:41;;;;;;;0.68;0.60;;;7.30;93.00;;;;;;9919018;28;20085;-71
2022/02/06 13:48:31;;;;;;;0.88;0.47;;;7.40;92.90;;;;;;9897363;28;20074;-73
2022/02/06 13:53:28;;;;;;;1.30;0.93;;;7.40;93.10;;;;;;9910589;28;20127;-72
2022/02/06 13:58:29;;;;;;;1.50;0.68;;;7.30;93.20;;;;;;9918917;28;20031;-73
2022/02/06 14:03:22;;;;;;;1.05;0.68;;;7.20;93.40;;;;;;9921795;28;20137;-74
2022/02/06 14:08:17;;;;;;;0.88;0.65;;;7.20;93.40;;;;;;9921009;28;20370;-73
2022/02/06 14:13:33;;;;;;;1.80;0.50;;;7.20;93.60;;;;;;9910999;28;20054;-72
2022/02/06 14:18:24;;;;;;;0.90;0.68;;;7.20;93.80;;;;;;9916781;28;20031;-74
2022/02/06 14:23:16;;;;;;;1.23;0.40;;;7.20;93.80;;;;;;9893936;28;20043;-74
2022/02/06 14:28:19;;;;;;;1.83;0.63;;;7.10;93.90;;;;;;9897809;28;20023;-73
2022/02/06 14:33:13;;;;;;;2.17;0.88;;;7.20;94.00;;;;;;9927753;28;20152;-72
2022/02/06 14:38:05;;;;;;;0.50;0.43;;;7.20;94.10;;;;;;9909701;28;20120;-73
2022/02/06 14:43:11;;;;;;;0.75;0.35;;;7.20;94.00;;;;;;9937915;28;20026;-73
2022/02/06 14:48:01;;;;;;;0.55;0.50;;;7.60;94.20;;;;;;9935097;28;20027;-74
2022/02/06 14:52:52;;;;;;;0.25;0.25;;;7.20;94.20;;;;;;9914165;28;20510;-73
2022/02/06 14:57:43;;;;;;;1.60;0.55;;;7.50;94.40;;;;;;9935072;28;20031;-73
2022/02/06 15:02:37;;;;;;;1.17;0.47;;;7.20;94.40;;;;;;9913267;28;20043;-74
2022/02/06 15:07:29;;;;;;;1.58;0.43;;;7.30;94.20;;;;;;9922357;28;20038;-72
2022/02/06 15:12:23;;;;;;;0.20;0.20;;;7.40;94.10;;;;;;9912788;28;20524;-73
2022/02/06 15:17:18;;;;;;;0.43;0.40;;;7.40;94.10;;;;;;9914960;28;20525;-72
2022/02/06 15:22:12;;;;;;;3.50;0.65;;;7.40;94.10;;;;;;9935773;28;20019;-71
2022/02/06 15:27:03;;;;;;;2.22;0.40;;;7.40;94.10;;;;;;9922414;28;20429;-72
2022/02/06 15:31:55;;;;;;;1.38;0.30;;;7.50;94.00;;;;;;9942845;28;20053;-72
2022/02/06 15:36:50;;;;;;;0.57;0.30;;;7.60;93.80;;;;;;9967044;28;20096;-71
2022/02/06 15:41:42;;;;;;;0.82;0.40;;;7.70;93.70;;;;;;9963723;28;20021;-72
2022/02/06 15:46:34;;;;;;;1.17;0.40;;;7.70;93.50;;;;;;9971218;28;20041;-72
2022/02/06 15:51:25;;;;;;;0.30;0.20;;;7.80;93.40;;;;;;9944919;28;20027;-73
2022/02/06 15:56:18;;;;;;;0.93;0.30;;;7.90;93.20;;;;;;9965345;28;20034;-75
2022/02/06 16:01:09;;;;;;;0.00;0.00;;;8.00;93.10;;;;;;9948155;28;20033;-71
2022/02/06 16:06:04;;;;;;;1.35;0.47;;;8.00;93.00;;;;;;9968281;28;20030;-73
2022/02/06 16:10:58;;;;;;;0.40;0.30;;;8.10;92.90;;;;;;9975453;28;20030;-72
2022/02/06 16:15:48;;;;;;;0.85;0.40;;;8.10;92.80;;;;;;9980186;28;20043;-72
2022/02/06 16:20:39;;;;;;;0.68;0.32;;;8.10;92.60;;;;;;9973902;28;20023;-71
2022/02/06 16:25:30;;;;;;;0.22;0.20;;;8.10;92.60;;;;;;9972580;28;20038;-73
2022/02/06 16:30:21;;;;;;;0.88;0.30;;;8.10;92.60;;;;;;9983399;28;20040;-72
2022/02/06 16:35:12;;;;;;;2.25;1.17;;;8.10;92.60;;;;;;9969266;28;20050;-73
2022/02/06 16:40:04;;;;;;;0.25;0.22;;;8.10;92.60;;;;;;9958967;28;20030;-72
2022/02/06 16:44:56;;;;;;;0.60;0.38;;;8.10;92.50;;;;;;9958788;28;20027;-72
2022/02/06 16:49:47;;;;;;;0.88;0.45;;;8.10;92.50;;;;;;9969094;28;20539;-72
2022/02/06 16:54:38;;;;;;;2.05;0.80;;;8.10;92.50;;;;;;9973795;28;20084;-70
2022/02/06 16:59:29;;;;;;;0.80;0.25;;;8.10;92.40;;;;;;9956021;28;20129;-68
2022/02/06 17:04:20;;;;;;;0.57;0.40;;;8.10;92.40;;;;;;9969089;28;20142;-70
2022/02/06 17:09:13;;;;;;;0.63;0.40;;;8.10;92.40;;;;;;9972209;28;20029;-74
2022/02/06 17:14:04;;;;;;;0.95;0.60;;;8.10;92.30;;;;;;9962861;28;20429;-71
2022/02/06 17:18:55;;;;;;;1.02;0.50;;;8.10;92.30;;;;;;9955139;28;20026;-71
2022/02/06 17:23:46;;;;;;;0.30;0.30;;;8.20;92.20;;;;;;9979235;28;20084;-72
2022/02/06 17:28:36;;;;;;;0.38;0.20;;;8.20;92.20;;;;;;9966908;28;20041;-71
2022/02/06 17:33:30;;;;;;;0.30;0.30;;;8.20;92.20;;;;;;9967481;28;20035;-73
2022/02/06 17:38:26;;;;;;;0.38;0.20;;;8.30;92.20;;;;;;9956530;28;20045;-76
2022/02/06 17:43:17;;;;;;;0.43;0.28;;;8.30;92.10;;;;;;9976672;28;20539;-72
2022/02/06 17:48:21;;;;;;;1.27;0.32;;;8.30;92.20;;;;;;9977068;28;20034;-73
2022/02/06 17:53:12;;;;;;;0.25;0.25;;;8.30;92.20;;;;;;9949156;28;20073;-72
2022/02/06 17:58:05;;;;;;;0.38;0.20;;;8.40;92.10;;;;;;9974278;28;20472;-76
2022/02/06 18:02:56;;;;;;;0.20;0.20;;;8.40;92.10;;;;;;9949935;28;20061;-75
2022/02/06 18:07:51;;;;;;;0.30;0.25;;;8.40;92.10;;;;;;9964621;28;20657;-73
2022/02/06 18:12:42;;;;;;;0.50;0.22;;;8.50;92.20;;;;;;9958257;28;20086;-70
2022/02/06 18:17:33;;;;;;;0.60;0.30;;;8.50;92.20;;;;;;9964734;28;20085;-71
2022/02/06 18:22:24;;;;;;;0.38;0.38;;;8.60;92.20;;;;;;9968707;28;20050;-70
2022/02/06 18:27:15;;;;;;;0.32;0.22;;;8.50;92.30;;;;;;9984095;28;20110;-75
2022/02/06 18:32:06;;;;;;;0.20;0.20;;;8.40;92.60;;;;;;9954368;28;20469;-71
2022/02/06 18:36:56;;;;;;;0.28;0.20;;;8.30;92.70;;;;;;9968549;28;20073;-69
2022/02/06 18:41:47;;;;;;;1.45;0.77;;;8.40;92.70;;;;;;9980285;28;20074;-70
2022/02/06 18:46:38;;;;;;;0.50;0.40;;;8.50;92.70;;;;;;9973891;28;20030;-74
2022/02/06 18:51:29;;;;;;;0.60;0.25;;;8.50;92.60;;;;;;9968081;28;20081;-72
2022/02/06 18:56:19;;;;;;;0.60;0.47;;;8.50;92.60;;;;;;9979353;28;20037;-72
2022/02/06 19:01:10;;;;;;;0.40;0.38;;;8.50;92.60;;;;;;9975006;28;20131;-73
2022/02/06 19:06:01;;;;;;;0.98;0.40;;;8.50;92.60;;;;;;9958917;28;20018;-72
2022/02/06 19:10:52;;;;;;;1.00;0.30;;;8.50;92.60;;;;;;9965149;28;20042;-73
2022/02/06 19:15:47;;;;;;;0.75;0.30;;;8.50;92.70;;;;;;9961210;28;20057;-73
2022/02/06 19:20:38;;;;;;;2.07;0.50;;;8.50;92.60;;;;;;9959908;28;20026;-74
2022/02/06 19:25:29;;;;;;;0.85;0.43;;;8.50;92.60;;;;;;9972989;28;20041;-72
2022/02/06 19:30:24;;;;;;;1.90;0.30;;;8.50;92.60;;;;;;9978586;28;20053;-73
2022/02/06 19:35:24;;;;;;;0.52;0.40;;;8.60;92.70;;;;;;9949977;28;20050;-74
2022/02/06 19:40:22;;;;;;;0.40;0.32;;;8.60;92.70;;;;;;9966326;28;20061;-73
2022/02/06 19:45:13;;;;;;;0.47;0.38;;;8.70;92.80;;;;;;9972022;28;20489;-73
2022/02/06 19:50:07;;;;;;;0.65;0.57;;;8.70;92.90;;;;;;9971025;28;20022;-70
2022/02/06 19:55:00;;;;;;;0.40;0.20;;;8.70;92.90;;;;;;9967832;28;20208;-69
2022/02/06 19:59:58;;;;;;;0.75;0.32;;;8.70;93.10;;;;;;9972850;28;23485;-71
2022/02/06 20:04:50;;;;;;;1.20;0.30;;;8.70;93.10;;;;;;9952033;28;20093;-73
2022/02/06 20:09:50;;;;;;;0.75;0.30;;;8.60;93.10;;;;;;9942596;28;20034;-71
2022/02/06 20:14:41;;;;;;;0.50;0.28;;;8.40;93.50;;;;;;9944362;28;20085;-72
2022/02/06 20:19:32;;;;;;;0.82;0.43;;;8.30;93.50;;;;;;9962446;28;20034;-70
2022/02/06 20:24:23;;;;;;;1.83;0.68;;;8.30;93.70;;;;;;9968494;28;20034;-74
2022/02/06 20:29:15;;;;;;;0.55;0.35;;;8.30;93.70;;;;;;9960200;28;20047;-73
2022/02/06 20:34:06;;;;;;;0.63;0.50;;;8.40;93.80;;;;;;9936854;28;20094;-73
2022/02/06 20:38:57;;;;;;;0.77;0.22;;;8.60;93.70;;;;;;9943144;28;20037;-74
2022/02/06 20:43:51;;;;;;;0.15;0.13;;;8.70;93.60;;;;;;9950515;28;20027;-72
2022/02/06 20:48:43;;;;;;;0.20;0.20;;;8.80;93.60;;;;;;9956933;28;20069;-73
2022/02/06 20:53:40;;;;;;;0.20;0.20;;;8.80;93.80;;;;;;9948025;28;20507;-78
2022/02/06 20:58:32;;;;;;;0.52;0.28;;;8.70;93.80;;;;;;9962516;28;20022;-72
2022/02/06 21:03:32;;;;;;;1.17;0.47;;;8.50;94.00;;;;;;9963404;28;20181;-74
2022/02/06 21:08:22;;;;;;;0.30;0.10;;;8.20;94.20;;;;;;9956604;28;20125;-70
2022/02/06 21:13:14;;;;;;;0.20;0.15;;;8.00;94.40;;;;;;9970498;28;20458;-69
2022/02/06 21:18:04;;;;;;;0.25;0.08;;;7.80;94.80;;;;;;9981706;28;20026;-71
2022/02/06 21:22:55;;;;;;;0.32;0.10;;;7.80;95.10;;;;;;9980450;28;20039;-69
2022/02/06 21:27:46;;;;;;;0.35;0.25;;;7.70;95.10;;;;;;9961951;28;20113;-70
2022/02/06 21:32:37;;;;;;;0.43;0.20;;;7.70;94.80;;;;;;9966262;28;20200;-69
2022/02/06 21:37:28;;;;;;;0.38;0.22;;;7.80;94.90;;;;;;9969584;28;20575;-70
2022/02/06 21:42:19;;;;;;;0.20;0.20;;;7.70;95.00;;;;;;9973407;28;20209;-70
2022/02/06 21:47:09;;;;;;;0.43;0.28;;;7.70;95.20;;;;;;9973860;28;20106;-71
2022/02/06 21:52:00;;;;;;;0.10;0.10;;;7.70;95.20;;;;;;9969594;28;20121;-70
2022/02/06 21:56:51;;;;;;;0.17;0.17;;;7.60;95.30;;;;;;9975385;28;20027;-70
2022/02/06 22:01:45;;;;;;;0.22;0.10;;;7.60;95.20;;;;;;9968450;28;20097;-70
2022/02/06 22:06:38;;;;;;;0.30;0.30;;;7.60;95.30;;;;;;9975282;28;20436;-70
2022/02/06 22:11:47;;;;;;;0.30;0.28;;;7.60;95.40;;;;;;9977721;28;20033;-69
2022/02/06 22:32:10;;;;;;;0.10;0.10;;;7.60;95.40;;;;;;9982517;28;20164;-70
2022/02/06 22:37:01;;;;;;;0.30;0.20;;;7.70;95.40;;;;;;9972740;28;20023;-71
2022/02/06 22:41:55;;;;;;;0.20;0.10;;;7.60;95.30;;;;;;9970381;28;20383;-70
2022/02/06 22:46:47;;;;;;;0.20;0.20;;;7.60;95.30;;;;;;9973883;28;20030;-72
2022/02/06 22:51:39;;;;;;;0.17;0.15;;;7.60;95.40;;;;;;9962561;28;20101;-70
2022/02/06 22:56:32;;;;;;;0.08;0.08;;;7.60;95.40;;;;;;9975738;28;20041;-70
2022/02/06 23:01:23;;;;;;;0.85;0.20;;;7.70;95.40;;;;;;9954119;28;20030;-69
2022/02/06 23:06:16;;;;;;;1.05;0.43;;;7.70;95.40;;;;;;9972953;28;20080;-71
2022/02/06 23:11:09;;;;;;;0.32;0.10;;;7.70;95.40;;;;;;9977407;28;20036;-69
2022/02/06 23:16:06;;;;;;;0.85;0.20;;;7.70;95.50;;;;;;9965099;28;20054;-70
2022/02/06 23:20:57;;;;;;;0.17;0.17;;;7.70;95.40;;;;;;9942847;28;20021;-69
2022/02/06 23:25:48;;;;;;;1.20;0.25;;;7.40;95.60;;;;;;9975370;28;20093;-70
2022/02/06 23:30:39;;;;;;;0.50;0.20;;;7.30;96.00;;;;;;9967565;28;20046;-69
2022/02/06 23:35:30;;;;;;;0.20;0.10;;;7.20;96.20;;;;;;9980947;28;20050;-68
2022/02/06 23:40:22;;;;;;;0.03;0.03;;;7.30;96.10;;;;;;9972199;28;20023;-69
2022/02/06 23:45:27;;;;;;;0.40;0.20;;;6.60;96.50;;;;;;9967810;28;20030;-69
2022/02/06 23:50:21;;;;;;;0.80;0.30;;;6.30;97.20;;;;;;9958548;28;20298;-67
2022/02/06 23:55:25;;;;;;;0.38;0.15;;;6.30;97.40;;;;;;9951175;28;20495;-69
